Time;durP1;ratioP1;P1;durP2;ratioP2;P2;SDS_P1;SDS_P2;PMS_P1;PMS_P2;Temp;Humidity;BMP_temperature;BMP_pressure;BME280_temperature;BME280_humidity;BME280_pressure;Samples;Min_cycle;Max_cycle;Signal;HPM_P1;HPM_P2
2023/04/26 00:01:59;;;;;;;6.65;3.95;;;5.90;99.90;;;;;;4968745;28;20392;-47
2023/04/26 00:04:46;;;;;;;6.57;3.88;;;5.90;99.90;;;;;;4974243;28;20094;-51
2023/04/26 00:07:32;;;;;;;8.23;4.10;;;5.90;99.90;;;;;;4978856;28;20559;-46
2023/04/26 00:10:18;;;;;;;7.13;4.20;;;5.90;99.90;;;;;;4981585;28;20456;-47
2023/04/26 00:13:04;;;;;;;10.35;4.43;;;5.90;99.90;;;;;;4974721;28;20376;-46
2023/04/26 00:15:50;;;;;;;10.30;4.65;;;5.80;99.90;;;;;;4974132;28;20041;-49
2023/04/26 00:18:36;;;;;;;11.35;6.07;;;5.80;99.90;;;;;;4961589;28;20089;-45
2023/04/26 00:21:22;;;;;;;10.48;5.10;;;5.80;99.90;;;;;;4972182;28;20043;-46
2023/04/26 00:24:08;;;;;;;11.25;5.78;;;5.90;99.90;;;;;;4974317;28;20403;-46
2023/04/26 00:26:55;;;;;;;10.10;5.93;;;5.80;99.90;;;;;;4959429;28;20459;-47
2023/04/26 00:29:41;;;;;;;12.20;5.95;;;5.60;99.90;;;;;;4969427;28;20027;-47
2023/04/26 00:32:26;;;;;;;9.85;5.55;;;5.60;99.90;;;;;;4966896;28;20031;-48
2023/04/26 00:35:13;;;;;;;11.75;5.53;;;5.40;99.90;;;;;;4966156;28;20039;-46
2023/04/26 00:37:59;;;;;;;9.63;6.22;;;5.40;99.90;;;;;;4961783;28;20484;-48
2023/04/26 00:40:45;;;;;;;10.20;6.03;;;5.20;99.90;;;;;;4971195;28;20031;-46
2023/04/26 00:43:31;;;;;;;14.07;6.70;;;5.10;99.90;;;;;;4971521;28;20043;-47
2023/04/26 00:46:17;;;;;;;9.82;6.15;;;5.00;99.90;;;;;;4974662;28;20500;-50
2023/04/26 00:49:03;;;;;;;12.07;6.40;;;4.90;99.90;;;;;;4961122;28;20069;-47
2023/04/26 00:51:50;;;;;;;11.55;6.68;;;4.90;99.90;;;;;;4973564;28;20043;-50
2023/04/26 00:54:37;;;;;;;13.88;7.47;;;4.80;99.90;;;;;;4980682;28;20084;-51
2023/04/26 00:57:23;;;;;;;13.93;6.45;;;4.80;99.90;;;;;;4982794;28;20137;-49
2023/04/26 01:00:10;;;;;;;14.45;6.57;;;4.70;99.90;;;;;;4984093;28;20030;-48
2023/04/26 01:02:56;;;;;;;14.70;7.60;;;4.70;99.90;;;;;;4962070;28;20118;-46
2023/04/26 01:05:43;;;;;;;15.93;7.78;;;4.60;99.90;;;;;;4961444;28;20031;-44
2023/04/26 01:08:29;;;;;;;17.55;7.43;;;4.70;99.90;;;;;;4973687;28;20030;-51
2023/04/26 01:11:15;;;;;;;14.82;7.00;;;4.80;99.90;;;;;;4973091;28;20038;-47
2023/04/26 01:14:02;;;;;;;12.10;7.00;;;4.80;99.90;;;;;;4978426;28;20117;-49
2023/04/26 01:16:48;;;;;;;13.57;6.80;;;4.80;99.90;;;;;;4954518;28;20396;-46
2023/04/26 01:19:36;;;;;;;12.48;7.53;;;4.90;99.90;;;;;;4954649;28;20059;-45
2023/04/26 01:22:22;;;;;;;15.35;7.63;;;4.80;99.90;;;;;;4955343;28;20027;-47
2023/04/26 01:25:11;;;;;;;11.70;6.80;;;5.00;99.90;;;;;;4955074;28;20035;-47
2023/04/26 01:27:56;;;;;;;10.52;7.18;;;5.00;99.90;;;;;;4953977;28;20082;-46
2023/04/26 01:30:42;;;;;;;14.57;6.53;;;5.00;99.90;;;;;;4983972;28;20069;-45
2023/04/26 01:33:28;;;;;;;9.55;5.50;;;5.10;99.90;;;;;;4979262;28;20049;-46
2023/04/26 01:36:14;;;;;;;11.45;5.90;;;5.10;99.90;;;;;;4992936;28;20495;-45
2023/04/26 01:39:00;;;;;;;13.93;5.78;;;5.20;99.90;;;;;;4982969;28;20038;-46
2023/04/26 01:41:46;;;;;;;10.70;6.05;;;5.20;99.90;;;;;;4977475;28;20030;-46
2023/04/26 01:44:32;;;;;;;12.23;6.32;;;5.00;99.90;;;;;;4979053;28;20084;-49
2023/04/26 01:47:18;;;;;;;14.23;6.75;;;5.00;99.90;;;;;;4992085;28;20031;-50
2023/04/26 01:50:05;;;;;;;12.88;6.20;;;5.00;99.90;;;;;;4992923;28;20372;-48
2023/04/26 01:52:51;;;;;;;11.43;6.25;;;4.80;99.90;;;;;;4984490;28;20066;-46
2023/04/26 01:55:37;;;;;;;11.57;5.85;;;4.70;99.90;;;;;;4984081;28;20030;-47
2023/04/26 01:58:23;;;;;;;12.00;5.80;;;4.90;99.90;;;;;;4989090;28;20073;-48
2023/04/26 02:01:10;;;;;;;11.20;4.75;;;4.90;99.90;;;;;;4984651;28;20405;-53
2023/04/26 02:03:55;;;;;;;12.38;5.00;;;4.90;99.90;;;;;;4992816;28;20038;-46
2023/04/26 02:06:41;;;;;;;12.60;5.60;;;5.00;99.90;;;;;;4992279;28;20061;-46
2023/04/26 02:09:27;;;;;;;12.38;6.53;;;4.90;99.90;;;;;;4992579;28;20045;-46
2023/04/26 02:12:13;;;;;;;14.13;7.50;;;4.90;99.90;;;;;;4992695;28;20061;-47
2023/04/26 02:14:59;;;;;;;14.05;7.72;;;4.70;99.90;;;;;;4992555;28;20499;-47
2023/04/26 02:17:45;;;;;;;18.83;7.80;;;4.50;99.90;;;;;;4992256;28;20161;-47
2023/04/26 02:20:32;;;;;;;17.40;8.55;;;4.50;99.90;;;;;;4991769;28;20053;-47
2023/04/26 02:23:17;;;;;;;15.55;8.90;;;4.50;99.90;;;;;;4991917;28;20407;-46
2023/04/26 02:26:03;;;;;;;17.80;9.20;;;4.40;99.90;;;;;;4996278;28;20049;-45
2023/04/26 02:28:49;;;;;;;15.48;8.73;;;4.50;99.90;;;;;;4991561;28;20030;-48
2023/04/26 02:31:35;;;;;;;22.42;8.77;;;4.40;99.90;;;;;;4982610;28;20027;-49
2023/04/26 02:34:22;;;;;;;17.95;9.20;;;4.30;99.90;;;;;;4992443;28;20550;-50
2023/04/26 02:37:08;;;;;;;18.73;9.38;;;4.20;99.90;;;;;;4992079;28;20039;-51
2023/04/26 02:39:54;;;;;;;22.08;9.20;;;4.20;99.90;;;;;;4982807;28;20077;-50
2023/04/26 02:42:41;;;;;;;16.55;8.05;;;4.10;99.90;;;;;;4992291;28;20530;-48
2023/04/26 02:45:27;;;;;;;14.57;7.55;;;4.30;99.90;;;;;;4987981;28;20042;-46
2023/04/26 02:48:12;;;;;;;16.23;8.40;;;4.50;99.90;;;;;;4986319;28;20069;-46
2023/04/26 02:50:58;;;;;;;17.90;8.77;;;4.50;99.90;;;;;;4972105;28;20041;-47
2023/04/26 02:53:44;;;;;;;17.17;7.82;;;4.30;99.90;;;;;;4972057;28;20031;-46
2023/04/26 02:56:30;;;;;;;19.20;8.32;;;4.30;99.90;;;;;;4971897;28;20055;-46
2023/04/26 02:59:16;;;;;;;20.50;8.80;;;4.30;99.90;;;;;;4972869;28;20023;-47
2023/04/26 03:02:02;;;;;;;21.20;8.93;;;4.30;99.90;;;;;;4972686;28;20096;-52
2023/04/26 03:04:48;;;;;;;17.83;8.40;;;4.30;99.90;;;;;;4972690;28;20077;-48
2023/04/26 03:07:34;;;;;;;13.75;7.40;;;4.30;99.90;;;;;;4971486;28;20027;-46
2023/04/26 03:10:20;;;;;;;15.75;8.57;;;4.40;99.90;;;;;;4972732;28;20058;-48
2023/04/26 03:13:06;;;;;;;19.88;8.18;;;4.40;99.90;;;;;;4972655;28;20435;-48
2023/04/26 03:15:52;;;;;;;17.55;7.90;;;4.30;99.90;;;;;;4975998;28;20045;-47
2023/04/26 03:18:38;;;;;;;18.08;8.55;;;4.10;99.90;;;;;;4982893;28;20502;-52
2023/04/26 03:21:24;;;;;;;20.15;8.73;;;4.30;99.90;;;;;;4991746;28;20042;-46
2023/04/26 03:24:10;;;;;;;16.75;8.93;;;4.30;99.90;;;;;;4991757;28;20121;-46
2023/04/26 03:26:56;;;;;;;18.52;8.05;;;4.30;99.90;;;;;;4991522;28;20113;-47
2023/04/26 03:29:42;;;;;;;17.15;8.10;;;4.30;99.90;;;;;;4991284;28;20030;-52
2023/04/26 03:32:28;;;;;;;17.17;7.88;;;4.30;99.90;;;;;;4979129;28;20031;-46
2023/04/26 03:35:14;;;;;;;15.20;8.75;;;4.30;99.90;;;;;;4992131;28;20023;-48
2023/04/26 03:38:00;;;;;;;18.35;7.60;;;4.40;99.90;;;;;;4991789;28;20038;-46
2023/04/26 03:40:46;;;;;;;19.05;7.88;;;4.40;99.90;;;;;;4983603;28;20470;-48
2023/04/26 03:43:32;;;;;;;13.18;6.90;;;4.40;99.90;;;;;;4977827;28;20023;-44
2023/04/26 03:46:18;;;;;;;16.38;8.15;;;4.30;99.90;;;;;;4984627;28;20034;-48
2023/04/26 03:49:04;;;;;;;15.25;6.15;;;4.30;99.90;;;;;;4981957;28;20386;-47
2023/04/26 03:51:50;;;;;;;13.82;6.15;;;4.30;99.90;;;;;;4995089;28;20023;-50
2023/04/26 03:54:36;;;;;;;15.60;6.63;;;4.30;99.90;;;;;;4995058;28;20034;-48
2023/04/26 03:57:22;;;;;;;12.65;5.95;;;4.10;99.90;;;;;;4993591;28;20039;-46
2023/04/26 04:00:13;;;;;;;13.85;7.78;;;3.90;99.90;;;;;;4994916;28;20027;-49
2023/04/26 04:02:59;;;;;;;16.77;8.20;;;3.80;99.90;;;;;;4982119;28;20030;-48
2023/04/26 04:05:45;;;;;;;18.75;6.78;;;3.80;99.90;;;;;;4955515;28;20492;-50
2023/04/26 04:08:30;;;;;;;12.43;5.90;;;3.80;99.90;;;;;;4944735;28;20114;-46
2023/04/26 04:11:16;;;;;;;17.77;6.20;;;3.80;99.90;;;;;;4986659;28;20026;-46
2023/04/26 04:14:02;;;;;;;13.13;5.85;;;3.80;99.90;;;;;;4994647;28;20466;-48
2023/04/26 04:16:48;;;;;;;15.88;6.50;;;4.00;99.90;;;;;;4990270;28;20492;-47
2023/04/26 04:19:35;;;;;;;15.13;5.90;;;4.00;99.90;;;;;;4986555;28;20519;-53
2023/04/26 04:22:21;;;;;;;16.65;5.97;;;3.90;99.90;;;;;;4994831;28;20026;-48
2023/04/26 04:25:12;;;;;;;12.05;5.43;;;3.80;99.90;;;;;;4994806;28;20030;-46
2023/04/26 04:27:58;;;;;;;11.25;5.50;;;3.90;99.90;;;;;;4994836;28;20034;-46
2023/04/26 04:30:45;;;;;;;12.30;5.05;;;3.90;99.90;;;;;;4995402;28;20396;-45
2023/04/26 04:33:31;;;;;;;10.48;5.25;;;3.90;99.90;;;;;;4994658;28;20108;-46
2023/04/26 04:36:17;;;;;;;9.02;5.75;;;3.80;99.90;;;;;;4994230;28;20550;-46
2023/04/26 04:39:04;;;;;;;8.57;5.20;;;3.90;99.90;;;;;;4994229;28;20027;-49
2023/04/26 04:41:51;;;;;;;9.15;5.07;;;4.00;99.90;;;;;;4994294;28;20034;-47
2023/04/26 04:44:38;;;;;;;12.32;5.22;;;3.90;99.90;;;;;;4994202;28;20031;-46
2023/04/26 04:47:24;;;;;;;12.63;4.97;;;3.70;99.90;;;;;;4993948;28;20113;-46
2023/04/26 04:50:10;;;;;;;10.95;5.20;;;3.80;99.90;;;;;;4980108;28;20423;-47
2023/04/26 04:52:56;;;;;;;8.20;4.90;;;3.70;99.90;;;;;;4989572;28;20038;-45
2023/04/26 04:55:42;;;;;;;10.70;5.32;;;3.80;99.90;;;;;;4985429;28;20033;-47
2023/04/26 04:58:28;;;;;;;12.18;5.40;;;3.90;99.90;;;;;;4984691;28;20037;-45
2023/04/26 05:01:14;;;;;;;9.27;5.88;;;3.90;99.90;;;;;;4993889;28;20113;-51
2023/04/26 05:04:00;;;;;;;12.70;5.35;;;3.80;99.90;;;;;;4980226;28;20407;-48
2023/04/26 05:06:46;;;;;;;10.05;5.68;;;3.90;99.90;;;;;;4994046;28;20033;-47
2023/04/26 05:09:32;;;;;;;13.27;5.68;;;3.90;99.90;;;;;;4980790;28;20029;-50
2023/04/26 05:12:18;;;;;;;9.48;5.45;;;4.10;99.90;;;;;;4994016;28;20085;-47
2023/04/26 05:15:05;;;;;;;8.00;5.13;;;4.20;99.90;;;;;;4966528;28;20027;-48
2023/04/26 05:17:51;;;;;;;10.38;5.60;;;4.20;99.90;;;;;;4993916;28;20479;-46
2023/04/26 05:20:37;;;;;;;7.90;5.68;;;4.00;99.90;;;;;;4992330;28;20068;-46
2023/04/26 05:23:23;;;;;;;11.15;5.47;;;4.20;99.90;;;;;;4993544;28;20090;-47
2023/04/26 05:26:13;;;;;;;9.77;5.20;;;4.10;99.90;;;;;;4979787;28;20438;-53
2023/04/26 05:28:59;;;;;;;10.90;5.97;;;4.10;99.90;;;;;;4993390;28;20058;-51
2023/04/26 05:31:45;;;;;;;10.07;5.32;;;4.20;99.90;;;;;;4992297;28;20399;-50
2023/04/26 05:34:31;;;;;;;19.88;6.63;;;4.20;99.90;;;;;;4993193;28;20085;-54
2023/04/26 05:37:17;;;;;;;11.50;5.78;;;4.20;99.90;;;;;;4993349;28;20044;-44
2023/04/26 05:40:04;;;;;;;11.57;5.68;;;4.40;99.90;;;;;;4992977;28;20026;-48
2023/04/26 05:42:50;;;;;;;9.95;6.15;;;4.60;99.90;;;;;;4993083;28;20192;-47
2023/04/26 05:45:36;;;;;;;11.55;5.35;;;4.70;99.90;;;;;;4979643;28;20080;-46
2023/04/26 05:48:23;;;;;;;10.60;5.13;;;4.90;99.90;;;;;;4991542;28;20027;-48
2023/04/26 05:51:09;;;;;;;14.68;6.25;;;4.80;99.90;;;;;;4977286;28;20049;-49
2023/04/26 05:53:56;;;;;;;13.75;5.55;;;4.70;99.90;;;;;;4974005;28;20034;-52
2023/04/26 05:56:42;;;;;;;9.75;5.28;;;4.70;99.90;;;;;;4958742;28;20026;-47
2023/04/26 05:59:31;;;;;;;10.60;5.50;;;4.90;99.90;;;;;;4973328;28;20030;-47
2023/04/26 06:02:17;;;;;;;16.05;5.97;;;5.10;99.90;;;;;;4972784;28;20489;-51
2023/04/26 06:05:05;;;;;;;11.32;5.60;;;5.20;99.90;;;;;;4972624;28;20110;-51
2023/04/26 06:07:51;;;;;;;16.35;6.10;;;5.30;99.90;;;;;;4959040;28;20059;-47
2023/04/26 06:10:37;;;;;;;10.30;5.22;;;5.30;99.90;;;;;;4973422;28;20136;-47
2023/04/26 06:13:23;;;;;;;7.07;4.90;;;5.30;99.90;;;;;;4973048;28;20381;-48
2023/04/26 06:16:09;;;;;;;10.30;5.40;;;5.40;99.90;;;;;;4972589;28;20030;-47
2023/04/26 06:18:55;;;;;;;13.05;6.00;;;5.50;99.90;;;;;;4973118;28;20075;-50
2023/04/26 06:21:41;;;;;;;13.88;5.43;;;5.50;99.90;;;;;;4972653;28;20066;-47
2023/04/26 06:24:27;;;;;;;9.63;5.40;;;5.60;99.90;;;;;;4973698;28;20031;-47
2023/04/26 06:27:13;;;;;;;13.38;5.90;;;5.70;99.90;;;;;;4972207;28;20517;-50
2023/04/26 06:29:59;;;;;;;13.90;6.35;;;5.50;99.90;;;;;;4972650;28;20503;-48
2023/04/26 06:32:45;;;;;;;15.25;5.82;;;5.60;99.90;;;;;;4973414;28;20034;-51
2023/04/26 06:35:30;;;;;;;9.00;5.75;;;5.60;99.90;;;;;;4979725;28;20038;-49
2023/04/26 06:38:16;;;;;;;11.13;5.28;;;5.60;99.90;;;;;;4981698;28;20027;-54
2023/04/26 06:41:02;;;;;;;12.05;5.47;;;5.70;99.90;;;;;;4981896;28;20037;-51
2023/04/26 06:43:48;;;;;;;15.52;5.50;;;5.70;99.90;;;;;;4992402;28;20058;-50
2023/04/26 06:46:36;;;;;;;12.15;5.55;;;5.80;99.90;;;;;;4978181;28;20486;-51
2023/04/26 06:49:23;;;;;;;17.33;9.00;;;6.00;99.90;;;;;;4981701;28;20113;-51
2023/04/26 06:52:09;;;;;;;11.57;5.90;;;6.20;99.90;;;;;;4980109;28;20408;-45
2023/04/26 06:54:56;;;;;;;21.15;5.78;;;6.20;99.90;;;;;;4973315;28;20106;-48
2023/04/26 06:57:41;;;;;;;13.82;5.18;;;6.40;99.90;;;;;;4972887;28;20082;-48
2023/04/26 07:00:28;;;;;;;12.77;7.35;;;6.40;99.90;;;;;;4971748;28;20109;-47
2023/04/26 07:03:14;;;;;;;12.13;5.32;;;6.50;99.90;;;;;;4989778;28;20038;-51
2023/04/26 07:06:01;;;;;;;14.10;5.72;;;6.50;99.90;;;;;;4980626;28;20030;-52
2023/04/26 07:08:47;;;;;;;12.52;5.55;;;6.40;99.90;;;;;;4969371;28;20031;-50
2023/04/26 07:11:33;;;;;;;15.63;6.40;;;6.60;99.90;;;;;;4961657;28;20475;-52
2023/04/26 07:14:19;;;;;;;15.27;5.47;;;6.60;99.90;;;;;;4952484;28;20170;-49
2023/04/26 07:17:06;;;;;;;15.45;5.97;;;6.60;99.90;;;;;;4952013;28;20511;-50
2023/04/26 07:19:52;;;;;;;13.60;5.65;;;6.80;99.20;;;;;;4952328;28;20047;-47
2023/04/26 07:22:38;;;;;;;14.05;5.40;;;6.80;99.60;;;;;;4958404;28;20042;-49
2023/04/26 07:25:25;;;;;;;10.30;5.25;;;6.80;99.60;;;;;;4976539;28;20507;-49
2023/04/26 07:28:11;;;;;;;10.38;5.18;;;6.90;99.60;;;;;;4980963;28;20085;-46
2023/04/26 07:31:00;;;;;;;10.45;5.50;;;6.90;99.60;;;;;;4979434;28;20193;-46
2023/04/26 07:33:46;;;;;;;14.27;6.13;;;7.00;99.20;;;;;;4983380;28;20026;-51
2023/04/26 07:36:32;;;;;;;14.35;7.43;;;7.00;99.30;;;;;;4975432;28;20050;-50
2023/04/26 07:39:18;;;;;;;19.15;6.28;;;7.00;99.50;;;;;;4976349;28;20412;-49
2023/04/26 07:42:04;;;;;;;12.57;5.72;;;7.00;99.50;;;;;;4974491;28;20027;-52
2023/04/26 07:44:50;;;;;;;16.13;5.70;;;6.90;99.40;;;;;;4967742;28;20117;-50
2023/04/26 07:47:36;;;;;;;12.50;5.90;;;7.10;99.30;;;;;;4986919;28;20725;-50
2023/04/26 07:50:23;;;;;;;15.02;5.78;;;7.30;99.00;;;;;;4995213;28;20092;-49
2023/04/26 07:53:09;;;;;;;17.50;6.28;;;7.50;98.70;;;;;;4991561;28;20027;-48
2023/04/26 07:55:55;;;;;;;13.90;5.30;;;7.60;98.50;;;;;;4989044;28;20057;-52
2023/04/26 07:58:41;;;;;;;16.50;6.40;;;7.50;98.30;;;;;;5008367;28;20042;-49
2023/04/26 08:01:27;;;;;;;13.05;6.10;;;7.50;98.30;;;;;;4980196;28;20039;-51
2023/04/26 08:04:13;;;;;;;11.15;5.50;;;7.30;98.00;;;;;;4997252;28;20027;-50
2023/04/26 08:07:03;;;;;;;15.95;5.65;;;7.40;97.40;;;;;;4982952;28;20089;-49
2023/04/26 08:09:49;;;;;;;25.25;7.18;;;7.50;97.20;;;;;;4994979;28;20033;-50
2023/04/26 08:12:36;;;;;;;12.32;5.20;;;7.40;97.60;;;;;;4980495;28;20034;-47
2023/04/26 08:15:22;;;;;;;19.55;5.88;;;7.60;97.20;;;;;;4973458;28;20073;-49
2023/04/26 08:18:08;;;;;;;9.02;5.45;;;7.70;96.90;;;;;;4969577;28;20032;-49
2023/04/26 08:20:54;;;;;;;11.32;5.25;;;7.40;97.00;;;;;;4962303;28;20472;-46
2023/04/26 08:23:40;;;;;;;10.55;5.53;;;7.30;97.40;;;;;;4963237;28;20028;-51
2023/04/26 08:26:26;;;;;;;11.00;5.05;;;7.50;97.50;;;;;;4969043;28;20447;-49
2023/04/26 08:29:12;;;;;;;13.30;6.30;;;7.50;97.10;;;;;;4973656;28;20053;-51
2023/04/26 08:31:58;;;;;;;12.35;6.40;;;7.60;97.10;;;;;;4975566;28;20035;-55
2023/04/26 08:34:43;;;;;;;9.50;5.63;;;7.70;96.50;;;;;;4978377;28;20114;-48
2023/04/26 08:37:29;;;;;;;9.68;5.30;;;7.60;96.60;;;;;;4972190;28;20046;-52
2023/04/26 08:40:21;;;;;;;15.57;5.68;;;7.60;96.40;;;;;;4981346;28;20089;-46
2023/04/26 08:43:09;;;;;;;13.38;5.63;;;7.60;96.30;;;;;;4975819;28;20038;-50
2023/04/26 08:45:58;;;;;;;9.35;5.00;;;7.60;96.40;;;;;;4972611;28;20054;-46
2023/04/26 08:48:48;;;;;;;16.25;6.18;;;7.70;96.20;;;;;;4972826;28;20027;-50
2023/04/26 08:51:36;;;;;;;19.25;4.97;;;7.70;95.90;;;;;;4966383;28;20038;-54
2023/04/26 08:54:24;;;;;;;8.20;4.85;;;7.60;95.40;;;;;;4963326;28;20072;-49
2023/04/26 08:57:10;;;;;;;14.00;5.18;;;7.70;95.40;;;;;;4956516;28;20031;-45
2023/04/26 08:59:57;;;;;;;13.98;5.55;;;7.90;95.30;;;;;;4953781;29;20031;-51
2023/04/26 09:02:51;;;;;;;11.15;4.88;;;8.00;94.60;;;;;;4966941;28;20512;-52
2023/04/26 09:05:44;;;;;;;7.63;4.65;;;8.00;94.30;;;;;;4954812;29;20039;-56
2023/04/26 09:08:30;;;;;;;13.10;4.80;;;8.10;94.20;;;;;;4954446;29;20031;-49
2023/04/26 09:11:16;;;;;;;12.45;4.18;;;7.80;94.10;;;;;;4966150;28;20034;-48
2023/04/26 09:14:02;;;;;;;7.15;4.30;;;7.60;94.40;;;;;;4975604;28;20034;-51
2023/04/26 09:16:48;;;;;;;8.55;4.28;;;7.70;95.30;;;;;;4970862;28;20031;-49
2023/04/26 09:19:39;;;;;;;9.02;4.13;;;7.80;94.70;;;;;;4965084;28;20122;-47
2023/04/26 09:22:27;;;;;;;11.75;4.72;;;7.80;94.20;;;;;;4970996;28;20443;-49
2023/04/26 09:25:16;;;;;;;11.60;4.10;;;7.90;94.50;;;;;;4973694;28;20101;-49
2023/04/26 09:28:03;;;;;;;7.85;4.45;;;7.90;94.80;;;;;;4972884;28;20031;-54
2023/04/26 09:30:49;;;;;;;11.23;5.57;;;8.00;94.70;;;;;;4973794;28;20116;-50
2023/04/26 09:33:35;;;;;;;9.80;5.07;;;8.50;94.20;;;;;;4973304;28;20507;-49
2023/04/26 09:36:21;;;;;;;10.35;5.45;;;8.70;93.60;;;;;;4973071;28;20058;-51
2023/04/26 09:39:07;;;;;;;11.85;5.10;;;8.60;93.50;;;;;;4975287;28;20799;-49
2023/04/26 09:41:53;;;;;;;10.10;5.53;;;8.30;93.90;;;;;;4972593;28;20381;-46
2023/04/26 09:44:39;;;;;;;11.48;4.40;;;8.30;93.90;;;;;;4973182;28;20593;-47
2023/04/26 09:47:25;;;;;;;10.65;4.90;;;8.30;93.80;;;;;;4972291;28;20087;-49
2023/04/26 09:50:11;;;;;;;9.00;4.60;;;8.50;92.70;;;;;;4972605;28;20082;-46
2023/04/26 09:52:58;;;;;;;17.13;5.28;;;8.60;93.10;;;;;;4971528;28;20116;-48
2023/04/26 09:55:44;;;;;;;11.30;5.07;;;8.70;92.80;;;;;;4972008;28;20523;-52
2023/04/26 09:58:30;;;;;;;13.23;5.13;;;8.70;93.20;;;;;;4959754;28;20145;-53
2023/04/26 10:01:18;;;;;;;11.77;4.50;;;8.80;92.10;;;;;;4965522;28;20066;-47
2023/04/26 10:04:06;;;;;;;7.28;4.60;;;9.00;91.60;;;;;;4974552;28;20070;-50
2023/04/26 10:06:52;;;;;;;12.82;4.80;;;8.90;91.50;;;;;;4972135;28;20038;-51
2023/04/26 10:09:38;;;;;;;9.10;4.32;;;8.80;91.40;;;;;;4972186;28;20027;-47
2023/04/26 10:12:24;;;;;;;10.52;5.07;;;8.60;91.60;;;;;;4970868;28;20539;-47
2023/04/26 10:15:11;;;;;;;7.85;4.03;;;8.70;91.20;;;;;;4962397;28;20119;-48
2023/04/26 10:17:57;;;;;;;10.93;4.47;;;8.80;91.00;;;;;;4969184;28;20051;-52
2023/04/26 10:20:47;;;;;;;10.23;4.00;;;9.10;91.10;;;;;;4972219;28;20045;-50
2023/04/26 10:23:34;;;;;;;10.07;4.10;;;9.50;90.50;;;;;;4964343;28;20109;-49
2023/04/26 10:26:51;;;;;;;8.23;3.75;;;10.00;90.10;;;;;;4957549;28;20031;-47
2023/04/26 10:29:55;;;;;;;10.20;4.40;;;9.80;88.00;;;;;;4958579;28;20058;-49
2023/04/26 10:32:56;;;;;;;13.68;4.30;;;9.70;90.20;;;;;;4971260;28;20419;-52
2023/04/26 10:36:07;;;;;;;12.90;4.78;;;10.10;90.10;;;;;;4953009;28;20042;-47
2023/04/26 10:39:21;;;;;;;16.77;4.70;;;10.20;89.80;;;;;;4963472;28;20514;-49
2023/04/26 10:42:26;;;;;;;8.65;4.30;;;9.80;91.00;;;;;;4973314;28;20114;-51
2023/04/26 10:45:29;;;;;;;7.40;4.07;;;9.80;90.10;;;;;;4971546;28;20399;-46
2023/04/26 10:48:27;;;;;;;16.30;4.72;;;9.70;89.90;;;;;;4957687;28;20036;-50
2023/04/26 10:51:13;;;;;;;12.15;5.10;;;9.20;90.30;;;;;;4973842;28;20443;-51
2023/04/26 10:53:59;;;;;;;8.82;5.03;;;8.90;90.00;;;;;;4974992;28;20026;-46
2023/04/26 10:56:45;;;;;;;10.18;4.38;;;8.90;90.40;;;;;;4972772;28;20484;-46
2023/04/26 10:59:31;;;;;;;8.07;4.45;;;8.80;90.30;;;;;;4973194;28;20029;-48
2023/04/26 11:02:37;;;;;;;11.88;4.22;;;8.90;90.50;;;;;;4976679;28;20054;-46
2023/04/26 11:05:36;;;;;;;7.07;4.47;;;8.90;90.50;;;;;;4958193;28;20038;-48
2023/04/26 11:08:31;;;;;;;5.60;3.97;;;9.00;90.90;;;;;;4971876;28;20031;-51
2023/04/26 11:11:20;;;;;;;8.75;4.80;;;9.10;90.40;;;;;;4978235;28;20488;-52
2023/04/26 11:14:06;;;;;;;7.40;4.03;;;9.00;88.90;;;;;;4976834;28;20034;-54
2023/04/26 11:16:52;;;;;;;8.07;3.92;;;8.90;89.50;;;;;;4977101;28;20038;-47
2023/04/26 11:19:40;;;;;;;9.85;4.18;;;8.90;89.70;;;;;;4976917;28;20062;-48
2023/04/26 11:22:28;;;;;;;10.82;4.80;;;9.00;89.60;;;;;;4975583;28;20034;-49
2023/04/26 11:25:14;;;;;;;7.00;4.03;;;9.20;89.30;;;;;;4975617;28;20511;-46
2023/04/26 11:28:02;;;;;;;8.00;4.10;;;9.50;87.70;;;;;;4976824;28;20185;-47
2023/04/26 11:30:49;;;;;;;11.18;5.07;;;9.40;88.50;;;;;;4972163;28;20037;-47
2023/04/26 11:33:35;;;;;;;14.18;5.10;;;9.80;90.50;;;;;;4975547;28;20113;-51
2023/04/26 11:36:23;;;;;;;8.32;4.35;;;10.00;87.70;;;;;;4975176;28;20528;-51
2023/04/26 11:39:09;;;;;;;8.85;3.53;;;10.20;86.70;;;;;;4975999;28;20027;-48
2023/04/26 11:42:05;;;;;;;7.10;4.00;;;10.20;86.20;;;;;;4968947;28;20114;-54
2023/04/26 11:44:53;;;;;;;7.32;4.05;;;10.20;86.70;;;;;;4972811;28;20031;-51
2023/04/26 11:47:39;;;;;;;6.93;3.80;;;10.50;85.80;;;;;;4963267;28;20520;-46
2023/04/26 11:50:25;;;;;;;10.80;4.15;;;10.40;83.40;;;;;;4974456;28;20344;-47
2023/04/26 11:53:12;;;;;;;8.75;4.20;;;10.20;84.90;;;;;;4975372;28;20495;-47
2023/04/26 11:55:58;;;;;;;12.65;4.40;;;9.90;85.10;;;;;;4977096;28;20039;-49
2023/04/26 11:58:48;;;;;;;5.75;3.78;;;9.80;85.60;;;;;;4974897;28;20034;-49
2023/04/26 12:01:34;;;;;;;8.02;4.03;;;9.80;85.40;;;;;;4977051;28;20038;-48
2023/04/26 12:04:30;;;;;;;9.63;4.05;;;9.70;85.90;;;;;;4974997;28;20576;-46
2023/04/26 12:07:19;;;;;;;13.18;4.10;;;9.70;86.50;;;;;;4956170;28;20031;-50
2023/04/26 12:10:24;;;;;;;11.82;4.25;;;9.80;86.10;;;;;;4954202;28;20027;-47
2023/04/26 12:13:12;;;;;;;13.40;3.90;;;10.00;84.80;;;;;;4956033;29;20028;-47
2023/04/26 12:15:58;;;;;;;9.98;3.90;;;9.90;85.10;;;;;;4971818;28;20023;-53
2023/04/26 12:18:50;;;;;;;7.75;4.28;;;10.00;83.80;;;;;;4974311;28;20035;-48
2023/04/26 12:21:43;;;;;;;8.50;3.97;;;10.20;83.20;;;;;;4974582;28;20031;-48
2023/04/26 12:24:35;;;;;;;8.38;4.07;;;10.20;82.50;;;;;;4974444;28;20038;-46
2023/04/26 12:27:21;;;;;;;6.93;3.85;;;10.10;84.00;;;;;;4973854;28;20039;-48
2023/04/26 12:30:08;;;;;;;9.05;4.10;;;9.90;83.20;;;;;;4975340;28;20034;-47
2023/04/26 12:32:54;;;;;;;5.90;3.40;;;9.60;82.80;;;;;;4974791;28;20114;-50
2023/04/26 12:35:41;;;;;;;10.65;4.38;;;9.50;83.00;;;;;;4963507;28;20760;-46
2023/04/26 12:38:27;;;;;;;8.75;4.45;;;9.60;83.00;;;;;;4955872;28;20039;-46
2023/04/26 12:41:13;;;;;;;9.65;4.50;;;9.60;83.20;;;;;;4958862;28;20031;-49
2023/04/26 12:43:58;;;;;;;6.13;3.38;;;9.70;83.80;;;;;;4969794;28;20063;-44
2023/04/26 12:46:45;;;;;;;12.45;4.68;;;9.70;83.50;;;;;;4971666;28;20023;-48
2023/04/26 12:49:31;;;;;;;5.93;3.92;;;9.70;83.10;;;;;;4954770;29;20167;-45
2023/04/26 12:52:17;;;;;;;8.52;3.90;;;9.40;84.10;;;;;;4954934;29;20024;-44
2023/04/26 12:55:03;;;;;;;10.40;4.07;;;9.40;84.50;;;;;;4954841;29;20039;-46
2023/04/26 12:57:50;;;;;;;11.82;4.47;;;9.40;84.20;;;;;;4955672;28;20035;-47
2023/04/26 13:00:35;;;;;;;9.02;4.20;;;9.70;84.40;;;;;;4955119;28;20031;-48
2023/04/26 13:03:21;;;;;;;7.80;4.07;;;9.60;84.90;;;;;;4954782;29;20042;-47
2023/04/26 13:06:08;;;;;;;7.90;4.00;;;9.60;84.60;;;;;;4954932;28;20094;-50
2023/04/26 13:08:53;;;;;;;7.75;3.70;;;9.20;85.10;;;;;;4961506;28;20113;-47
2023/04/26 13:11:40;;;;;;;14.05;4.90;;;9.30;85.10;;;;;;4973988;28;20100;-47
2023/04/26 13:14:25;;;;;;;8.70;4.00;;;9.30;85.20;;;;;;4973354;28;20023;-45
2023/04/26 13:17:11;;;;;;;8.07;4.28;;;9.30;85.60;;;;;;4973249;28;20113;-44
2023/04/26 13:19:57;;;;;;;8.77;3.90;;;9.40;85.50;;;;;;4973834;28;20118;-44
2023/04/26 13:22:43;;;;;;;9.18;3.95;;;9.30;85.70;;;;;;4974718;28;20026;-48
2023/04/26 13:25:29;;;;;;;6.55;3.80;;;9.70;85.20;;;;;;4974246;28;20030;-45
2023/04/26 13:28:15;;;;;;;8.95;4.28;;;9.70;84.60;;;;;;4959925;28;20395;-48
2023/04/26 13:31:02;;;;;;;10.43;3.60;;;9.60;84.80;;;;;;4973798;28;20531;-45
2023/04/26 13:33:48;;;;;;;8.10;3.47;;;9.70;85.10;;;;;;4955184;28;20469;-46
2023/04/26 13:36:35;;;;;;;8.20;4.43;;;9.70;85.00;;;;;;4954802;28;20027;-51
2023/04/26 13:39:21;;;;;;;11.95;4.18;;;9.60;85.80;;;;;;4958844;28;20027;-49
2023/04/26 13:42:07;;;;;;;7.78;4.28;;;9.60;86.10;;;;;;4972853;28;20042;-55
2023/04/26 13:44:53;;;;;;;7.72;3.72;;;9.60;86.10;;;;;;4974754;28;20530;-51
2023/04/26 13:47:39;;;;;;;8.13;4.15;;;9.60;85.60;;;;;;4971788;28;20035;-45
2023/04/26 13:50:25;;;;;;;13.60;4.85;;;9.40;86.60;;;;;;4972422;28;20521;-49
2023/04/26 13:53:11;;;;;;;7.53;3.92;;;9.30;86.70;;;;;;4971083;28;20047;-45
2023/04/26 13:55:57;;;;;;;8.32;4.15;;;9.20;86.90;;;;;;4972710;28;20027;-45
2023/04/26 13:58:43;;;;;;;11.77;3.97;;;9.40;87.40;;;;;;4953804;28;20038;-48
2023/04/26 14:01:29;;;;;;;10.52;4.07;;;9.40;86.80;;;;;;4966307;28;20022;-52
2023/04/26 14:04:15;;;;;;;8.65;4.45;;;9.50;86.60;;;;;;4972517;28;20503;-46
2023/04/26 14:07:01;;;;;;;8.27;4.28;;;9.60;90.60;;;;;;4973614;28;20492;-47
2023/04/26 14:09:49;;;;;;;7.13;4.28;;;10.00;88.60;;;;;;4973023;28;20471;-49
2023/04/26 14:12:35;;;;;;;9.70;3.65;;;10.20;89.00;;;;;;4953114;29;20038;-44
2023/04/26 14:15:21;;;;;;;10.07;3.70;;;10.40;85.50;;;;;;4970576;28;20041;-46
2023/04/26 14:18:07;;;;;;;6.78;3.80;;;10.50;86.20;;;;;;4972137;28;20118;-44
2023/04/26 14:20:53;;;;;;;6.43;3.80;;;10.60;85.40;;;;;;4972632;28;20035;-52
2023/04/26 14:23:39;;;;;;;7.93;4.57;;;10.80;84.40;;;;;;4973010;28;20057;-42
2023/04/26 14:26:25;;;;;;;10.27;3.90;;;10.80;87.00;;;;;;4971637;28;20031;-45
2023/04/26 14:29:11;;;;;;;9.05;4.00;;;10.90;83.30;;;;;;4972119;28;20031;-45
2023/04/26 14:31:57;;;;;;;8.70;3.67;;;10.80;85.50;;;;;;4972851;28;20023;-47